createdAt,value
2023-03-14T00:00:17.506Z,12.02
2023-03-14T00:02:44.037Z,12.47
2023-03-14T00:05:11.191Z,12.57
2023-03-14T00:07:39.012Z,12.10
2023-03-14T00:10:07.606Z,12.39
2023-03-14T00:12:34.146Z,12.00
2023-03-14T00:15:04.491Z,12.41
2023-03-14T00:17:31.781Z,12.15
2023-03-14T00:19:58.278Z,12.17
2023-03-14T00:22:24.808Z,12.11
2023-03-14T00:24:51.498Z,12.39
2023-03-14T00:27:17.973Z,12.24
2023-03-14T00:29:44.965Z,11.88
2023-03-14T00:32:11.512Z,12.08
2023-03-14T00:34:38.227Z,12.15
2023-03-14T00:37:04.758Z,12.00
2023-03-14T00:39:31.196Z,12.06
2023-03-14T00:41:57.698Z,12.55
2023-03-14T00:44:24.259Z,12.48
2023-03-14T00:46:50.762Z,12.28
2023-03-14T00:49:17.273Z,12.16
2023-03-14T00:51:43.731Z,12.35
2023-03-14T00:54:10.206Z,12.40
2023-03-14T00:56:36.643Z,12.06
2023-03-14T00:59:03.211Z,12.12
2023-03-14T01:01:29.730Z,12.14
2023-03-14T01:03:56.954Z,12.12
2023-03-14T01:06:26.228Z,12.54
2023-03-14T01:08:53.636Z,12.44
2023-03-14T01:11:23.101Z,12.21
2023-03-14T01:13:49.699Z,11.98
2023-03-14T01:16:16.807Z,12.23
2023-03-14T01:18:45.486Z,12.00
2023-03-14T01:21:16.370Z,11.65
2023-03-14T01:23:43.323Z,11.99
2023-03-14T01:26:12.485Z,12.15
2023-03-14T01:28:39.391Z,12.37
2023-03-14T01:31:07.997Z,12.52
2023-03-14T01:33:35.045Z,12.41
2023-03-14T01:36:03.378Z,12.48
2023-03-14T01:38:30.843Z,12.27
2023-03-14T01:40:58.158Z,11.98
2023-03-14T01:43:25.571Z,12.59
2023-03-14T01:46:07.149Z,12.36
2023-03-14T01:48:36.103Z,12.13
2023-03-14T01:51:03.700Z,12.61
2023-03-14T01:53:30.676Z,12.74
2023-03-14T01:55:58.025Z,12.26
2023-03-14T01:58:28.246Z,12.79
2023-03-14T02:00:56.340Z,12.78
2023-03-14T02:03:24.841Z,12.78
2023-03-14T02:05:52.290Z,12.65
2023-03-14T02:08:20.560Z,13.12
2023-03-14T02:10:49.949Z,12.93
2023-03-14T02:13:18.851Z,12.64
2023-03-14T02:15:45.422Z,12.98
2023-03-14T02:18:12.936Z,12.82
2023-03-14T02:21:06.919Z,12.30
2023-03-14T02:23:39.569Z,12.77
2023-03-14T02:26:22.200Z,12.80
2023-03-14T02:28:49.622Z,12.88
2023-03-14T02:31:16.496Z,12.78
2023-03-14T02:33:43.035Z,12.72
2023-03-14T02:36:13.077Z,13.09
2023-03-14T02:38:54.995Z,12.63
2023-03-14T02:41:22.261Z,12.84
2023-03-14T02:43:48.765Z,12.74
2023-03-14T02:46:18.111Z,12.94
2023-03-14T02:48:52.179Z,12.85
2023-03-14T02:51:18.835Z,12.75
2023-03-14T02:53:45.539Z,12.86
2023-03-14T02:56:12.143Z,12.97
2023-03-14T02:58:39.050Z,12.68
2023-03-14T03:01:06.083Z,12.99
2023-03-14T03:03:33.016Z,12.83
2023-03-14T03:05:59.599Z,12.99
2023-03-14T03:08:27.695Z,12.97
2023-03-14T03:10:55.048Z,12.88
2023-03-14T03:13:21.874Z,13.13
2023-03-14T03:15:48.394Z,12.76
2023-03-14T03:18:14.984Z,13.17
2023-03-14T03:20:41.420Z,13.07
2023-03-14T03:23:07.873Z,13.05
2023-03-14T03:25:34.384Z,12.78
2023-03-14T03:28:02.163Z,12.81
2023-03-14T03:30:28.837Z,12.95
2023-03-14T03:32:55.390Z,13.11
2023-03-14T03:35:21.857Z,13.05
2023-03-14T03:37:48.328Z,13.02
2023-03-14T03:40:14.881Z,12.93
2023-03-14T03:42:41.316Z,12.88
2023-03-14T03:45:08.409Z,12.76
2023-03-14T03:47:34.897Z,12.78
2023-03-14T03:50:01.388Z,12.12
2023-03-14T03:52:27.859Z,12.24
2023-03-14T03:54:54.331Z,12.59
2023-03-14T03:57:21.166Z,12.77
2023-03-14T03:59:47.638Z,12.49
2023-03-14T04:02:14.090Z,12.61
2023-03-14T04:04:40.853Z,11.82
2023-03-14T04:07:07.599Z,12.13
2023-03-14T04:09:34.069Z,11.63
2023-03-14T04:12:00.505Z,11.90
2023-03-14T04:14:27.110Z,12.12
2023-03-14T04:16:53.550Z,11.88
2023-03-14T04:19:20.072Z,12.51
2023-03-14T04:21:47.980Z,11.95
2023-03-14T04:24:14.548Z,12.09
2023-03-14T04:26:41.067Z,11.59
2023-03-14T04:29:07.548Z,11.61
2023-03-14T04:31:34.090Z,11.42
2023-03-14T04:34:00.604Z,11.71
2023-03-14T04:36:27.135Z,11.34
2023-03-14T04:38:53.604Z,11.17
2023-03-14T04:41:20.078Z,10.81
2023-03-14T04:43:46.506Z,11.26
2023-03-14T04:46:13.064Z,10.96
2023-03-14T04:48:39.756Z,10.38
2023-03-14T04:51:06.534Z,10.78
2023-03-14T04:53:33.328Z,10.92
2023-03-14T04:55:59.992Z,10.67
2023-03-14T04:58:26.525Z,10.44
2023-03-14T05:00:53.097Z,10.56
2023-03-14T05:03:20.311Z,10.32
2023-03-14T05:05:46.914Z,10.36
2023-03-14T05:08:13.821Z,10.60
2023-03-14T05:10:40.432Z,10.62
2023-03-14T05:13:06.953Z,10.44
2023-03-14T05:15:33.495Z,10.71
2023-03-14T05:18:00.012Z,10.88
2023-03-14T05:20:26.843Z,10.28
2023-03-14T05:22:53.278Z,10.77
2023-03-14T05:25:19.767Z,10.79
2023-03-14T05:27:46.298Z,10.62
2023-03-14T05:30:13.167Z,10.28
2023-03-14T05:32:39.639Z,10.39
2023-03-14T05:35:06.389Z,10.72
2023-03-14T05:37:32.842Z,10.64
2023-03-14T05:39:59.337Z,10.69
2023-03-14T05:42:25.773Z,10.68
2023-03-14T05:44:52.253Z,10.71
2023-03-14T05:47:18.744Z,10.58
2023-03-14T05:49:45.234Z,10.49
2023-03-14T05:52:11.684Z,10.95
2023-03-14T05:54:38.152Z,10.95
2023-03-14T05:57:04.621Z,10.85
2023-03-14T05:59:32.104Z,10.51
2023-03-14T06:02:00.274Z,11.05
2023-03-14T06:04:26.803Z,10.61
2023-03-14T06:06:53.287Z,10.81
2023-03-14T06:09:23.820Z,11.35
2023-03-14T06:11:50.647Z,10.70
2023-03-14T06:14:17.898Z,10.67
2023-03-14T06:16:44.450Z,11.02
2023-03-14T06:19:11.342Z,10.94
2023-03-14T06:21:37.783Z,10.92
2023-03-14T06:24:05.118Z,10.54
2023-03-14T06:26:31.593Z,10.43
2023-03-14T06:28:58.079Z,11.27
2023-03-14T06:31:24.562Z,10.90
2023-03-14T06:33:51.027Z,10.85
2023-03-14T06:36:17.496Z,10.96
2023-03-14T06:38:43.951Z,11.14
2023-03-14T06:41:11.202Z,11.15
2023-03-14T06:43:37.674Z,10.79
2023-03-14T06:46:06.515Z,10.90
2023-03-14T06:48:33.005Z,11.35
2023-03-14T06:50:59.511Z,11.08
2023-03-14T06:53:26.018Z,11.13
2023-03-14T06:55:52.499Z,11.15
2023-03-14T06:58:18.964Z,11.20
2023-03-14T07:00:45.609Z,11.26
2023-03-14T07:03:14.445Z,11.26
2023-03-14T07:05:41.625Z,11.18
2023-03-14T07:08:09.501Z,11.14
2023-03-14T07:10:36.317Z,11.06
2023-03-14T07:13:02.881Z,11.14
2023-03-14T07:15:29.374Z,11.32
2023-03-14T07:17:55.874Z,10.94
2023-03-14T07:20:22.393Z,11.50
2023-03-14T07:22:50.411Z,11.50
2023-03-14T07:25:17.509Z,11.66
2023-03-14T07:27:45.732Z,11.52
2023-03-14T07:30:13.287Z,11.57
2023-03-14T07:32:39.806Z,11.40
2023-03-14T07:35:07.043Z,11.49
2023-03-14T07:37:33.511Z,11.51
2023-03-14T07:39:59.997Z,11.56
2023-03-14T07:42:26.496Z,11.55
2023-03-14T07:44:53.527Z,11.38
2023-03-14T07:47:20.133Z,11.68
2023-03-14T07:49:46.559Z,11.16
2023-03-14T07:52:13.062Z,11.26
2023-03-14T07:54:39.508Z,11.12
2023-03-14T07:57:05.980Z,11.23
2023-03-14T07:59:32.481Z,11.13
2023-03-14T08:01:59.746Z,11.42
2023-03-14T08:04:26.196Z,11.24
2023-03-14T08:06:53.760Z,12.05
2023-03-14T08:09:20.205Z,11.45
2023-03-14T08:11:46.692Z,10.96
2023-03-14T08:14:13.195Z,11.52
2023-03-14T08:16:39.645Z,11.83
2023-03-14T08:19:06.122Z,11.34
2023-03-14T08:21:32.630Z,11.54
2023-03-14T08:23:59.099Z,11.46
2023-03-14T08:26:25.569Z,11.75
2023-03-14T08:28:52.003Z,11.57
2023-03-14T08:31:18.852Z,11.27
2023-03-14T08:33:45.362Z,11.61
2023-03-14T08:36:11.932Z,11.76
2023-03-14T08:38:38.450Z,11.63
2023-03-14T08:41:05.881Z,11.64
2023-03-14T08:43:32.349Z,11.91
2023-03-14T08:45:59.915Z,11.57
2023-03-14T08:48:26.376Z,11.22
2023-03-14T08:50:52.917Z,11.84
2023-03-14T08:53:19.734Z,11.15
2023-03-14T08:55:46.223Z,11.28
2023-03-14T08:58:12.683Z,11.19
2023-03-14T09:00:39.185Z,11.18
2023-03-14T09:03:05.654Z,11.54
2023-03-14T09:05:34.801Z,11.51
2023-03-14T09:08:01.438Z,11.98
2023-03-14T09:10:27.889Z,11.11
2023-03-14T09:12:54.357Z,10.05
2023-03-14T09:15:20.835Z,7.60
2023-03-14T09:17:47.341Z,8.01
2023-03-14T09:20:14.992Z,7.60
2023-03-14T09:22:41.750Z,7.41
2023-03-14T09:25:08.766Z,7.69
2023-03-14T09:27:35.294Z,8.01
2023-03-14T09:30:01.780Z,7.23
2023-03-14T09:32:28.291Z,7.11
2023-03-14T09:34:54.774Z,7.17
2023-03-14T09:37:22.011Z,7.02
2023-03-14T09:39:48.495Z,7.26
2023-03-14T09:42:18.686Z,5.95
2023-03-14T09:44:55.913Z,6.22
2023-03-14T09:47:23.203Z,6.05
2023-03-14T09:49:49.663Z,5.84
2023-03-14T09:52:20.315Z,6.00
2023-03-14T09:54:50.384Z,6.39
2023-03-14T09:57:21.929Z,5.90
2023-03-14T09:59:50.076Z,5.99
2023-03-14T10:02:20.910Z,5.53
2023-03-14T10:04:48.846Z,5.32
2023-03-14T10:07:35.561Z,5.06
2023-03-14T10:10:01.998Z,4.82
2023-03-14T10:12:37.478Z,5.09
2023-03-14T10:15:10.754Z,5.38
2023-03-14T10:17:47.904Z,5.41
2023-03-14T10:20:28.466Z,5.17
2023-03-14T10:22:55.417Z,5.44
2023-03-14T10:25:28.979Z,5.20
2023-03-14T10:27:55.483Z,5.33
2023-03-14T10:30:39.619Z,5.60
2023-03-14T10:33:22.092Z,5.60
2023-03-14T10:35:58.974Z,5.28
2023-03-14T10:38:31.443Z,4.79
2023-03-14T10:40:59.540Z,5.32
2023-03-14T10:43:37.009Z,5.64
2023-03-14T10:46:10.111Z,5.41
2023-03-14T10:48:38.592Z,5.02
2023-03-14T10:51:11.625Z,5.47
2023-03-14T10:53:47.415Z,5.31
2023-03-14T10:56:20.204Z,5.08
2023-03-14T10:58:51.485Z,5.50
2023-03-14T11:01:33.599Z,5.38
2023-03-14T11:04:21.343Z,5.92
2023-03-14T11:07:11.364Z,5.41
2023-03-14T11:09:54.161Z,6.27
2023-03-14T11:12:33.974Z,5.83
2023-03-14T11:15:28.533Z,5.99
2023-03-14T11:18:13.916Z,6.77
2023-03-14T11:20:46.262Z,6.59
2023-03-14T11:23:19.640Z,6.33
2023-03-14T11:26:16.602Z,6.77
2023-03-14T11:28:49.672Z,7.88
2023-03-14T11:31:27.570Z,6.29
2023-03-14T11:33:57.986Z,6.79
2023-03-14T11:36:50.366Z,6.76
2023-03-14T11:39:18.638Z,7.27
2023-03-14T11:41:50.478Z,6.78
2023-03-14T11:44:37.705Z,6.80
2023-03-14T11:47:09.348Z,6.80
2023-03-14T11:50:05.403Z,7.01
2023-03-14T11:52:34.015Z,5.98
2023-03-14T11:55:04.992Z,6.47
2023-03-14T11:57:31.599Z,6.94
2023-03-14T11:59:58.174Z,6.76
2023-03-14T12:02:34.482Z,6.75
2023-03-14T12:05:29.757Z,6.83
2023-03-14T12:08:08.586Z,6.40
2023-03-14T12:10:40.675Z,6.69
2023-03-14T12:13:12.007Z,6.64
2023-03-14T12:15:50.482Z,6.83
2023-03-14T12:18:43.594Z,6.72
2023-03-14T12:21:13.618Z,6.93
2023-03-14T12:23:52.322Z,6.96
2023-03-14T12:26:24.164Z,6.88
2023-03-14T12:29:00.307Z,7.30
2023-03-14T12:31:29.641Z,6.86
2023-03-14T12:34:04.559Z,7.54
2023-03-14T12:37:02.577Z,6.60
2023-03-14T12:39:56.973Z,6.65
2023-03-14T12:42:45.713Z,6.61
2023-03-14T12:45:28.961Z,6.67
2023-03-14T12:48:25.088Z,6.75
2023-03-14T12:51:03.122Z,7.17
2023-03-14T12:53:35.733Z,7.51
2023-03-14T12:56:29.752Z,6.54
2023-03-14T12:59:15.478Z,6.74
2023-03-14T13:01:48.680Z,6.80
2023-03-14T13:04:16.069Z,7.07
2023-03-14T13:06:55.180Z,6.89
2023-03-14T13:09:33.914Z,6.49
2023-03-14T13:12:15.190Z,6.76
2023-03-14T13:14:49.566Z,7.30
2023-03-14T13:17:34.498Z,7.55
2023-03-14T13:20:28.768Z,6.38
2023-03-14T13:22:55.392Z,6.65
2023-03-14T13:25:23.652Z,6.36
2023-03-14T13:27:56.162Z,6.45
2023-03-14T13:30:28.943Z,6.70
2023-03-14T13:32:56.559Z,7.29
2023-03-14T13:35:24.532Z,7.52
2023-03-14T13:38:16.090Z,7.22
2023-03-14T13:40:45.012Z,6.66
2023-03-14T13:43:16.056Z,7.11
2023-03-14T13:45:49.499Z,7.02
2023-03-14T13:48:16.721Z,6.98
2023-03-14T13:51:16.978Z,6.49
2023-03-14T13:53:54.636Z,6.40
2023-03-14T13:56:32.968Z,6.84
2023-03-14T13:58:59.565Z,6.62
2023-03-14T14:01:28.204Z,6.50
2023-03-14T14:03:57.069Z,6.52
2023-03-14T14:06:31.804Z,6.69
2023-03-14T14:09:02.141Z,6.35
2023-03-14T14:11:53.757Z,6.75
2023-03-14T14:14:40.371Z,6.28
2023-03-14T14:17:12.187Z,6.61
2023-03-14T14:19:39.870Z,6.35
2023-03-14T14:22:07.773Z,6.36
2023-03-14T14:24:35.525Z,6.50
2023-03-14T14:27:18.137Z,6.98
2023-03-14T14:29:46.652Z,6.65
2023-03-14T14:32:15.716Z,6.93
2023-03-14T14:34:50.643Z,6.92
2023-03-14T14:37:22.799Z,6.77
2023-03-14T14:39:50.198Z,6.91
2023-03-14T14:42:18.707Z,6.68
2023-03-14T14:44:45.625Z,6.90
2023-03-14T14:47:16.718Z,7.07
2023-03-14T14:49:43.188Z,7.08
2023-03-14T14:52:19.407Z,6.53
2023-03-14T14:54:49.582Z,6.48
2023-03-14T14:57:31.404Z,6.71
2023-03-14T15:00:05.071Z,6.46
2023-03-14T15:02:40.980Z,7.42
2023-03-14T15:05:13.812Z,6.98
2023-03-14T15:07:40.324Z,6.57
2023-03-14T15:10:07.748Z,6.68
2023-03-14T15:12:34.214Z,6.37
2023-03-14T15:15:00.732Z,6.44
2023-03-14T15:17:27.320Z,6.56
2023-03-14T15:19:53.782Z,5.89
2023-03-14T15:22:21.141Z,6.31
2023-03-14T15:24:47.587Z,6.07
2023-03-14T15:27:15.857Z,6.03
2023-03-14T15:29:42.593Z,6.63
2023-03-14T15:32:15.424Z,6.11
2023-03-14T15:34:42.030Z,5.98
2023-03-14T15:37:13.518Z,6.39
2023-03-14T15:39:40.953Z,6.36
2023-03-14T15:42:07.691Z,6.58
2023-03-14T15:44:34.151Z,6.91
2023-03-14T15:47:00.725Z,6.50
2023-03-14T15:49:27.183Z,6.67
2023-03-14T15:51:54.097Z,6.76
2023-03-14T15:54:21.330Z,7.33
2023-03-14T15:56:48.027Z,6.85
2023-03-14T15:59:14.507Z,6.60
2023-03-14T16:01:41.018Z,6.45
2023-03-14T16:04:07.515Z,6.54
2023-03-14T16:06:33.954Z,6.63
2023-03-14T16:09:00.700Z,6.50
2023-03-14T16:11:27.242Z,6.26
2023-03-14T16:13:53.691Z,6.10
2023-03-14T16:16:20.290Z,6.38
2023-03-14T16:18:46.994Z,6.10
2023-03-14T16:21:19.079Z,5.98
2023-03-14T16:23:46.016Z,6.28
2023-03-14T16:26:17.869Z,5.58
2023-03-14T16:28:45.716Z,5.70
2023-03-14T16:31:15.382Z,6.18
2023-03-14T16:33:41.927Z,5.84
2023-03-14T16:36:12.303Z,6.01
2023-03-14T16:38:40.714Z,5.78
2023-03-14T16:41:10.026Z,5.75
2023-03-14T16:43:39.807Z,5.59
2023-03-14T16:46:08.669Z,5.52
2023-03-14T16:48:35.245Z,5.20
2023-03-14T16:51:01.711Z,5.68
2023-03-14T16:53:30.093Z,5.89
2023-03-14T16:55:57.134Z,5.32
2023-03-14T16:58:23.651Z,5.32
2023-03-14T17:00:50.143Z,5.35
2023-03-14T17:03:17.694Z,5.61
2023-03-14T17:05:52.119Z,5.66
2023-03-14T17:08:20.029Z,5.52
2023-03-14T17:10:47.106Z,5.94
2023-03-14T17:13:13.989Z,5.12
2023-03-14T17:15:45.794Z,4.83
2023-03-14T17:18:12.696Z,5.15
2023-03-14T17:20:41.175Z,4.93
2023-03-14T17:23:08.551Z,5.33
2023-03-14T17:25:36.429Z,4.99
2023-03-14T17:28:03.020Z,4.98
2023-03-14T17:30:29.473Z,5.12
2023-03-14T17:32:57.421Z,4.96
2023-03-14T17:35:24.653Z,4.60
2023-03-14T17:37:51.235Z,4.99
2023-03-14T17:40:17.850Z,4.91
2023-03-14T17:42:44.336Z,5.01
2023-03-14T17:45:11.276Z,4.83
2023-03-14T17:47:37.787Z,5.02
2023-03-14T17:50:05.418Z,4.63
2023-03-14T17:52:33.451Z,4.61
2023-03-14T17:54:59.983Z,4.75
2023-03-14T17:57:26.602Z,4.59
2023-03-14T17:59:56.132Z,4.60
2023-03-14T18:02:23.929Z,4.31
2023-03-14T18:04:52.276Z,4.64
2023-03-14T18:07:20.720Z,4.45
2023-03-14T18:09:47.504Z,4.66
2023-03-14T18:12:14.293Z,4.61
2023-03-14T18:14:44.485Z,4.32
2023-03-14T18:17:15.753Z,4.71
2023-03-14T18:19:43.398Z,4.77
2023-03-14T18:22:12.131Z,4.37
2023-03-14T18:24:39.264Z,3.82
2023-03-14T18:27:06.480Z,3.94
2023-03-14T18:29:37.085Z,3.69
2023-03-14T18:32:04.113Z,3.77
2023-03-14T18:34:34.348Z,3.71
2023-03-14T18:37:02.084Z,3.92
2023-03-14T18:39:29.183Z,4.11
2023-03-14T18:42:00.003Z,3.74
2023-03-14T18:44:27.249Z,3.85
2023-03-14T18:46:55.787Z,3.98
2023-03-14T18:49:23.521Z,3.80
2023-03-14T18:51:51.381Z,4.29
2023-03-14T18:54:18.585Z,4.30
2023-03-14T18:56:45.350Z,4.08
2023-03-14T18:59:12.228Z,4.12
2023-03-14T19:01:39.111Z,4.17
2023-03-14T19:04:06.610Z,4.25
2023-03-14T19:06:33.531Z,4.41
2023-03-14T19:09:01.479Z,3.88
2023-03-14T19:11:28.312Z,4.13
2023-03-14T19:13:55.128Z,4.11
2023-03-14T19:16:22.565Z,4.06
2023-03-14T19:18:49.073Z,4.37
2023-03-14T19:21:29.252Z,4.22
2023-03-14T19:23:55.940Z,4.12
2023-03-14T19:26:22.787Z,3.98
2023-03-14T19:28:49.284Z,4.17
2023-03-14T19:31:15.847Z,3.63
2023-03-14T19:33:42.620Z,4.03
2023-03-14T19:36:22.691Z,3.69
2023-03-14T19:38:50.330Z,3.77
2023-03-14T19:41:17.426Z,3.98
2023-03-14T19:43:43.894Z,3.76
2023-03-14T19:46:10.538Z,3.96
2023-03-14T19:48:37.648Z,3.71
2023-03-14T19:51:04.417Z,3.95
2023-03-14T19:53:31.464Z,4.12
2023-03-14T19:55:58.067Z,4.24
2023-03-14T19:58:24.964Z,4.39
2023-03-14T20:00:51.647Z,4.43
2023-03-14T20:03:18.254Z,4.03
2023-03-14T20:05:44.858Z,4.06
2023-03-14T20:08:11.642Z,4.32
2023-03-14T20:10:38.390Z,4.31
2023-03-14T20:13:15.629Z,4.38
2023-03-14T20:15:46.967Z,4.23
2023-03-14T20:18:13.765Z,3.84
2023-03-14T20:20:43.408Z,3.95
2023-03-14T20:23:10.358Z,4.37
2023-03-14T20:25:37.826Z,4.78
2023-03-14T20:28:05.154Z,4.68
2023-03-14T20:30:31.999Z,4.11
2023-03-14T20:32:58.657Z,4.56
2023-03-14T20:35:25.225Z,4.23
2023-03-14T20:37:56.229Z,4.34
2023-03-14T20:40:24.249Z,4.70
2023-03-14T20:42:51.538Z,4.42
2023-03-14T20:45:18.522Z,4.02
2023-03-14T20:47:45.056Z,3.89
2023-03-14T20:50:12.687Z,4.13
2023-03-14T20:52:39.223Z,4.20
2023-03-14T20:55:06.769Z,3.71
2023-03-14T20:57:33.401Z,3.73
2023-03-14T21:00:00.145Z,4.40
2023-03-14T21:02:26.645Z,3.75
2023-03-14T21:04:53.395Z,4.11
2023-03-14T21:07:20.322Z,4.16
2023-03-14T21:09:46.896Z,4.35
2023-03-14T21:12:13.338Z,4.18
2023-03-14T21:14:40.537Z,4.22
2023-03-14T21:17:07.039Z,4.16
2023-03-14T21:19:33.625Z,3.98
2023-03-14T21:22:02.077Z,4.44
2023-03-14T21:24:29.526Z,4.52
2023-03-14T21:26:56.203Z,4.06
2023-03-14T21:29:23.760Z,4.26
2023-03-14T21:31:50.592Z,3.93
2023-03-14T21:34:17.850Z,4.27
2023-03-14T21:36:44.428Z,4.09
2023-03-14T21:39:10.930Z,4.31
2023-03-14T21:41:37.618Z,4.53
2023-03-14T21:44:04.278Z,3.83
2023-03-14T21:46:30.913Z,3.93
2023-03-14T21:48:57.590Z,4.21
2023-03-14T21:51:30.042Z,3.70
2023-03-14T21:53:57.055Z,3.61
2023-03-14T21:56:27.065Z,3.93
2023-03-14T21:58:59.216Z,3.81
2023-03-14T22:01:25.751Z,3.67
2023-03-14T22:03:53.548Z,3.64
2023-03-14T22:06:20.899Z,3.67
2023-03-14T22:08:47.730Z,4.25
2023-03-14T22:11:14.881Z,4.10
2023-03-14T22:13:41.350Z,3.80
2023-03-14T22:16:08.344Z,4.20
2023-03-14T22:18:34.931Z,4.22
2023-03-14T22:21:01.673Z,3.89
2023-03-14T22:23:28.298Z,4.04
2023-03-14T22:25:54.799Z,3.65
2023-03-14T22:28:24.140Z,3.88
2023-03-14T22:30:51.601Z,4.12
2023-03-14T22:33:19.122Z,3.91
2023-03-14T22:35:53.184Z,4.14
2023-03-14T22:38:20.023Z,3.85
2023-03-14T22:40:53.861Z,4.12
2023-03-14T22:43:20.534Z,3.76
2023-03-14T22:45:47.459Z,3.71
2023-03-14T22:48:15.273Z,3.55
2023-03-14T22:50:43.625Z,3.60
2023-03-14T22:53:13.132Z,3.66
2023-03-14T22:55:39.615Z,3.61
2023-03-14T22:58:06.365Z,3.57
2023-03-14T23:00:33.701Z,3.53
2023-03-14T23:03:00.879Z,3.81
2023-03-14T23:05:27.585Z,4.04
2023-03-14T23:07:54.179Z,3.57
2023-03-14T23:10:20.931Z,3.58
2023-03-14T23:12:47.512Z,3.42
2023-03-14T23:15:17.388Z,3.52
2023-03-14T23:17:45.499Z,3.17
2023-03-14T23:20:12.843Z,3.39
2023-03-14T23:22:39.307Z,3.44
2023-03-14T23:25:06.797Z,3.24
2023-03-14T23:27:33.846Z,3.23
2023-03-14T23:30:00.427Z,3.42
2023-03-14T23:32:28.040Z,3.74
2023-03-14T23:34:55.126Z,3.45
2023-03-14T23:37:23.468Z,3.61
2023-03-14T23:39:50.321Z,3.49
2023-03-14T23:42:17.035Z,3.27
2023-03-14T23:44:43.903Z,3.61
2023-03-14T23:47:10.432Z,3.55
2023-03-14T23:49:36.969Z,3.48
2023-03-14T23:52:03.663Z,3.71
2023-03-14T23:54:30.134Z,3.57
2023-03-14T23:56:56.631Z,3.62
2023-03-14T23:59:23.087Z,3.57
